sensor_id;sensor_type;location;lat;lon;timestamp;temperature;humidity
33207;DHT22;19565;46.602;11.534;2023-07-30T00:00:13;20.60;99.90
33207;DHT22;19565;46.602;11.534;2023-07-30T00:02:41;20.50;99.90
33207;DHT22;19565;46.602;11.534;2023-07-30T00:05:09;20.50;99.90
33207;DHT22;19565;46.602;11.534;2023-07-30T00:07:37;20.50;99.90
33207;DHT22;19565;46.602;11.534;2023-07-30T00:10:06;20.50;99.90
33207;DHT22;19565;46.602;11.534;2023-07-30T00:12:35;20.60;99.90
33207;DHT22;19565;46.602;11.534;2023-07-30T00:15:04;20.60;99.90
33207;DHT22;19565;46.602;11.534;2023-07-30T00:17:32;20.50;99.90
33207;DHT22;19565;46.602;11.534;2023-07-30T00:20:00;20.60;99.90
33207;DHT22;19565;46.602;11.534;2023-07-30T00:22:29;20.60;99.90
33207;DHT22;19565;46.602;11.534;2023-07-30T00:24:57;20.60;99.90
33207;DHT22;19565;46.602;11.534;2023-07-30T00:27:25;20.60;99.90
33207;DHT22;19565;46.602;11.534;2023-07-30T00:29:55;20.60;99.90
33207;DHT22;19565;46.602;11.534;2023-07-30T00:32:23;20.60;99.90
33207;DHT22;19565;46.602;11.534;2023-07-30T00:34:51;20.60;99.90
33207;DHT22;19565;46.602;11.534;2023-07-30T00:37:19;20.70;99.90
33207;DHT22;19565;46.602;11.534;2023-07-30T00:39:47;20.70;99.90
33207;DHT22;19565;46.602;11.534;2023-07-30T00:42:15;20.60;99.90
33207;DHT22;19565;46.602;11.534;2023-07-30T00:44:43;20.60;99.90
33207;DHT22;19565;46.602;11.534;2023-07-30T00:47:13;20.60;99.90
33207;DHT22;19565;46.602;11.534;2023-07-30T00:49:41;20.60;99.90
33207;DHT22;19565;46.602;11.534;2023-07-30T00:52:09;20.60;99.90
33207;DHT22;19565;46.602;11.534;2023-07-30T00:54:39;20.60;99.90
33207;DHT22;19565;46.602;11.534;2023-07-30T00:57:07;20.60;99.90
33207;DHT22;19565;46.602;11.534;2023-07-30T00:59:37;20.60;99.90
33207;DHT22;19565;46.602;11.534;2023-07-30T01:02:05;20.60;99.90
33207;DHT22;19565;46.602;11.534;2023-07-30T01:04:36;20.60;99.90
33207;DHT22;19565;46.602;11.534;2023-07-30T01:07:04;20.60;99.90
33207;DHT22;19565;46.602;11.534;2023-07-30T01:09:32;20.60;99.90
33207;DHT22;19565;46.602;11.534;2023-07-30T01:12:02;20.50;99.90
33207;DHT22;19565;46.602;11.534;2023-07-30T01:14:31;20.50;99.90
33207;DHT22;19565;46.602;11.534;2023-07-30T01:16:59;20.50;99.90
33207;DHT22;19565;46.602;11.534;2023-07-30T01:19:27;20.20;99.90
33207;DHT22;19565;46.602;11.534;2023-07-30T01:21:58;20.10;99.90
33207;DHT22;19565;46.602;11.534;2023-07-30T01:24:26;20.00;99.90
33207;DHT22;19565;46.602;11.534;2023-07-30T01:26:58;20.10;99.90
33207;DHT22;19565;46.602;11.534;2023-07-30T01:29:33;20.10;99.90
33207;DHT22;19565;46.602;11.534;2023-07-30T01:32:06;20.20;99.90
33207;DHT22;19565;46.602;11.534;2023-07-30T01:34:35;20.20;99.90
33207;DHT22;19565;46.602;11.534;2023-07-30T01:37:09;20.20;99.90
33207;DHT22;19565;46.602;11.534;2023-07-30T01:39:40;20.30;99.90
33207;DHT22;19565;46.602;11.534;2023-07-30T01:42:11;20.30;99.90
33207;DHT22;19565;46.602;11.534;2023-07-30T01:44:39;20.30;99.90
33207;DHT22;19565;46.602;11.534;2023-07-30T01:47:08;20.10;99.90
33207;DHT22;19565;46.602;11.534;2023-07-30T01:49:36;20.00;99.90
33207;DHT22;19565;46.602;11.534;2023-07-30T01:52:06;20.00;99.90
33207;DHT22;19565;46.602;11.534;2023-07-30T01:54:34;20.00;99.90
33207;DHT22;19565;46.602;11.534;2023-07-30T01:57:03;20.10;99.90
33207;DHT22;19565;46.602;11.534;2023-07-30T01:59:31;20.20;99.90
33207;DHT22;19565;46.602;11.534;2023-07-30T02:01:59;20.20;99.90
33207;DHT22;19565;46.602;11.534;2023-07-30T02:04:27;20.20;99.90
33207;DHT22;19565;46.602;11.534;2023-07-30T02:06:56;20.30;99.90
33207;DHT22;19565;46.602;11.534;2023-07-30T02:09:25;20.30;99.90
33207;DHT22;19565;46.602;11.534;2023-07-30T02:11:53;20.30;99.90
33207;DHT22;19565;46.602;11.534;2023-07-30T02:14:21;20.20;99.90
33207;DHT22;19565;46.602;11.534;2023-07-30T02:16:49;20.20;99.90
33207;DHT22;19565;46.602;11.534;2023-07-30T02:19:18;20.20;99.90
33207;DHT22;19565;46.602;11.534;2023-07-30T02:21:46;20.20;99.90
33207;DHT22;19565;46.602;11.534;2023-07-30T02:24:14;20.30;99.90
33207;DHT22;19565;46.602;11.534;2023-07-30T02:26:43;20.30;99.90
33207;DHT22;19565;46.602;11.534;2023-07-30T02:29:11;20.30;99.90
33207;DHT22;19565;46.602;11.534;2023-07-30T02:31:39;20.30;99.90
33207;DHT22;19565;46.602;11.534;2023-07-30T02:34:08;20.20;99.90
33207;DHT22;19565;46.602;11.534;2023-07-30T02:36:36;20.20;99.90
33207;DHT22;19565;46.602;11.534;2023-07-30T02:39:04;20.20;99.90
33207;DHT22;19565;46.602;11.534;2023-07-30T02:41:32;20.20;99.90
33207;DHT22;19565;46.602;11.534;2023-07-30T02:44:02;20.20;99.90
33207;DHT22;19565;46.602;11.534;2023-07-30T02:46:30;20.20;99.90
33207;DHT22;19565;46.602;11.534;2023-07-30T02:48:59;20.20;99.90
33207;DHT22;19565;46.602;11.534;2023-07-30T02:51:27;20.20;99.90
33207;DHT22;19565;46.602;11.534;2023-07-30T02:53:57;20.20;99.90
33207;DHT22;19565;46.602;11.534;2023-07-30T02:56:26;20.20;99.90
33207;DHT22;19565;46.602;11.534;2023-07-30T02:58:54;20.20;99.90
33207;DHT22;19565;46.602;11.534;2023-07-30T03:01:23;20.20;99.90
33207;DHT22;19565;46.602;11.534;2023-07-30T03:03:52;20.10;99.90
33207;DHT22;19565;46.602;11.534;2023-07-30T03:06:20;20.20;99.90
33207;DHT22;19565;46.602;11.534;2023-07-30T03:08:48;20.20;99.90
33207;DHT22;19565;46.602;11.534;2023-07-30T03:11:16;20.20;99.90
33207;DHT22;19565;46.602;11.534;2023-07-30T03:13:44;20.20;99.90
33207;DHT22;19565;46.602;11.534;2023-07-30T03:16:12;20.20;99.90
33207;DHT22;19565;46.602;11.534;2023-07-30T03:18:41;20.10;99.90
33207;DHT22;19565;46.602;11.534;2023-07-30T03:21:09;20.10;99.90
33207;DHT22;19565;46.602;11.534;2023-07-30T03:23:37;20.10;99.90
33207;DHT22;19565;46.602;11.534;2023-07-30T03:26:05;20.10;99.90
33207;DHT22;19565;46.602;11.534;2023-07-30T03:28:33;20.10;99.90
33207;DHT22;19565;46.602;11.534;2023-07-30T03:31:05;20.10;99.90
33207;DHT22;19565;46.602;11.534;2023-07-30T03:33:33;20.10;99.90
33207;DHT22;19565;46.602;11.534;2023-07-30T03:36:03;20.10;99.90
33207;DHT22;19565;46.602;11.534;2023-07-30T03:38:31;20.00;99.90
33207;DHT22;19565;46.602;11.534;2023-07-30T03:40:59;20.00;99.90
33207;DHT22;19565;46.602;11.534;2023-07-30T03:43:27;20.00;99.90
33207;DHT22;19565;46.602;11.534;2023-07-30T03:45:55;20.00;99.90
33207;DHT22;19565;46.602;11.534;2023-07-30T03:48:23;20.00;99.90
33207;DHT22;19565;46.602;11.534;2023-07-30T03:50:52;20.00;99.90
33207;DHT22;19565;46.602;11.534;2023-07-30T03:53:22;19.90;99.90
33207;DHT22;19565;46.602;11.534;2023-07-30T03:55:50;19.80;99.90
33207;DHT22;19565;46.602;11.534;2023-07-30T03:58:18;19.80;99.90
33207;DHT22;19565;46.602;11.534;2023-07-30T04:00:46;19.70;99.90
33207;DHT22;19565;46.602;11.534;2023-07-30T04:03:14;19.80;99.90
33207;DHT22;19565;46.602;11.534;2023-07-30T04:05:42;19.70;99.90
33207;DHT22;19565;46.602;11.534;2023-07-30T04:08:10;19.80;99.90
33207;DHT22;19565;46.602;11.534;2023-07-30T04:10:40;19.80;99.90
33207;DHT22;19565;46.602;11.534;2023-07-30T04:13:08;19.80;99.90
33207;DHT22;19565;46.602;11.534;2023-07-30T04:15:36;19.80;99.90
33207;DHT22;19565;46.602;11.534;2023-07-30T04:18:04;19.80;99.90
33207;DHT22;19565;46.602;11.534;2023-07-30T04:20:32;19.80;99.90
33207;DHT22;19565;46.602;11.534;2023-07-30T04:23:00;19.70;99.90
33207;DHT22;19565;46.602;11.534;2023-07-30T04:25:28;19.70;99.90
33207;DHT22;19565;46.602;11.534;2023-07-30T04:27:57;19.60;99.90
33207;DHT22;19565;46.602;11.534;2023-07-30T04:30:25;19.70;99.90
33207;DHT22;19565;46.602;11.534;2023-07-30T04:32:53;19.70;99.90
33207;DHT22;19565;46.602;11.534;2023-07-30T04:35:22;19.70;99.90
33207;DHT22;19565;46.602;11.534;2023-07-30T04:37:50;19.70;99.90
33207;DHT22;19565;46.602;11.534;2023-07-30T04:40:18;19.80;99.90
33207;DHT22;19565;46.602;11.534;2023-07-30T04:42:48;19.60;99.90
33207;DHT22;19565;46.602;11.534;2023-07-30T04:45:18;19.50;99.90
33207;DHT22;19565;46.602;11.534;2023-07-30T04:47:46;19.30;99.90
33207;DHT22;19565;46.602;11.534;2023-07-30T04:50:14;19.20;99.90
33207;DHT22;19565;46.602;11.534;2023-07-30T04:52:42;19.30;99.90
33207;DHT22;19565;46.602;11.534;2023-07-30T04:55:10;19.40;99.90
33207;DHT22;19565;46.602;11.534;2023-07-30T04:57:38;19.40;99.90
33207;DHT22;19565;46.602;11.534;2023-07-30T05:00:07;19.50;99.90
33207;DHT22;19565;46.602;11.534;2023-07-30T05:02:36;19.40;99.90
33207;DHT22;19565;46.602;11.534;2023-07-30T05:05:05;19.30;99.90
33207;DHT22;19565;46.602;11.534;2023-07-30T05:07:33;19.30;99.90
33207;DHT22;19565;46.602;11.534;2023-07-30T05:10:03;19.40;99.90
33207;DHT22;19565;46.602;11.534;2023-07-30T05:12:33;19.50;99.90
33207;DHT22;19565;46.602;11.534;2023-07-30T05:15:01;19.50;99.90
33207;DHT22;19565;46.602;11.534;2023-07-30T05:17:30;19.60;99.90
33207;DHT22;19565;46.602;11.534;2023-07-30T05:19:59;19.60;99.90
33207;DHT22;19565;46.602;11.534;2023-07-30T05:22:27;19.70;99.90
33207;DHT22;19565;46.602;11.534;2023-07-30T05:24:55;19.70;99.90
33207;DHT22;19565;46.602;11.534;2023-07-30T05:27:23;19.70;99.90
33207;DHT22;19565;46.602;11.534;2023-07-30T05:29:51;19.70;99.90
33207;DHT22;19565;46.602;11.534;2023-07-30T05:32:19;19.80;99.90
33207;DHT22;19565;46.602;11.534;2023-07-30T05:34:47;19.80;99.90
33207;DHT22;19565;46.602;11.534;2023-07-30T05:37:16;19.90;99.90
33207;DHT22;19565;46.602;11.534;2023-07-30T05:39:44;19.90;99.90
33207;DHT22;19565;46.602;11.534;2023-07-30T05:42:13;19.90;99.90
33207;DHT22;19565;46.602;11.534;2023-07-30T05:44:41;20.00;99.90
33207;DHT22;19565;46.602;11.534;2023-07-30T05:47:09;20.00;99.90
33207;DHT22;19565;46.602;11.534;2023-07-30T05:49:37;19.90;99.90
33207;DHT22;19565;46.602;11.534;2023-07-30T05:52:05;20.00;99.90
33207;DHT22;19565;46.602;11.534;2023-07-30T05:54:34;20.00;99.90
33207;DHT22;19565;46.602;11.534;2023-07-30T05:57:03;19.90;99.90
33207;DHT22;19565;46.602;11.534;2023-07-30T05:59:31;19.90;99.90
33207;DHT22;19565;46.602;11.534;2023-07-30T06:02:02;19.90;99.90
33207;DHT22;19565;46.602;11.534;2023-07-30T06:04:30;19.90;99.90
33207;DHT22;19565;46.602;11.534;2023-07-30T06:06:59;19.90;99.90
33207;DHT22;19565;46.602;11.534;2023-07-30T06:09:28;19.90;99.90
33207;DHT22;19565;46.602;11.534;2023-07-30T06:11:58;20.00;99.90
33207;DHT22;19565;46.602;11.534;2023-07-30T06:14:26;20.00;99.90
33207;DHT22;19565;46.602;11.534;2023-07-30T06:16:55;20.00;99.90
33207;DHT22;19565;46.602;11.534;2023-07-30T06:19:23;20.00;99.90
33207;DHT22;19565;46.602;11.534;2023-07-30T06:21:51;19.90;99.90
33207;DHT22;19565;46.602;11.534;2023-07-30T06:24:19;19.70;99.90
33207;DHT22;19565;46.602;11.534;2023-07-30T06:26:47;19.60;99.90
33207;DHT22;19565;46.602;11.534;2023-07-30T06:29:16;19.60;99.90
33207;DHT22;19565;46.602;11.534;2023-07-30T06:31:44;19.60;99.90
33207;DHT22;19565;46.602;11.534;2023-07-30T06:34:12;19.60;99.90
33207;DHT22;19565;46.602;11.534;2023-07-30T06:36:40;19.60;99.90
33207;DHT22;19565;46.602;11.534;2023-07-30T06:39:09;19.60;99.90
33207;DHT22;19565;46.602;11.534;2023-07-30T06:41:36;19.80;99.90
33207;DHT22;19565;46.602;11.534;2023-07-30T06:44:05;19.90;99.90
33207;DHT22;19565;46.602;11.534;2023-07-30T06:46:34;19.90;99.90
33207;DHT22;19565;46.602;11.534;2023-07-30T06:49:02;20.00;99.90
33207;DHT22;19565;46.602;11.534;2023-07-30T06:51:30;20.10;99.90
33207;DHT22;19565;46.602;11.534;2023-07-30T06:53:58;20.20;99.90
33207;DHT22;19565;46.602;11.534;2023-07-30T06:56:26;20.20;99.90
33207;DHT22;19565;46.602;11.534;2023-07-30T06:58:55;20.30;99.90
33207;DHT22;19565;46.602;11.534;2023-07-30T07:01:23;20.40;99.90
33207;DHT22;19565;46.602;11.534;2023-07-30T07:03:53;20.40;99.90
33207;DHT22;19565;46.602;11.534;2023-07-30T07:06:21;20.50;99.90
33207;DHT22;19565;46.602;11.534;2023-07-30T07:08:49;20.50;99.90
33207;DHT22;19565;46.602;11.534;2023-07-30T07:11:17;20.50;99.90
33207;DHT22;19565;46.602;11.534;2023-07-30T07:13:45;20.60;99.90
33207;DHT22;19565;46.602;11.534;2023-07-30T07:16:13;20.60;99.90
33207;DHT22;19565;46.602;11.534;2023-07-30T07:18:42;20.70;99.90
33207;DHT22;19565;46.602;11.534;2023-07-30T07:21:11;20.70;99.90
33207;DHT22;19565;46.602;11.534;2023-07-30T07:23:39;20.80;99.90
33207;DHT22;19565;46.602;11.534;2023-07-30T07:26:07;20.80;99.90
33207;DHT22;19565;46.602;11.534;2023-07-30T07:28:35;20.80;99.90
33207;DHT22;19565;46.602;11.534;2023-07-30T07:31:04;20.90;99.90
33207;DHT22;19565;46.602;11.534;2023-07-30T07:33:32;20.90;99.90
33207;DHT22;19565;46.602;11.534;2023-07-30T07:36:03;20.90;99.90
33207;DHT22;19565;46.602;11.534;2023-07-30T07:38:34;21.00;99.90
33207;DHT22;19565;46.602;11.534;2023-07-30T07:41:02;21.00;99.90
33207;DHT22;19565;46.602;11.534;2023-07-30T07:43:30;21.10;99.90
33207;DHT22;19565;46.602;11.534;2023-07-30T07:45:58;21.10;99.90
33207;DHT22;19565;46.602;11.534;2023-07-30T07:48:26;21.10;99.90
33207;DHT22;19565;46.602;11.534;2023-07-30T07:50:54;21.20;99.90
33207;DHT22;19565;46.602;11.534;2023-07-30T07:53:22;21.20;99.90
33207;DHT22;19565;46.602;11.534;2023-07-30T07:55:52;21.20;99.90
33207;DHT22;19565;46.602;11.534;2023-07-30T07:58:20;21.30;99.90
33207;DHT22;19565;46.602;11.534;2023-07-30T08:00:48;21.30;99.90
33207;DHT22;19565;46.602;11.534;2023-07-30T08:03:16;21.30;99.90
33207;DHT22;19565;46.602;11.534;2023-07-30T08:05:44;21.40;99.90
33207;DHT22;19565;46.602;11.534;2023-07-30T08:08:12;21.40;99.90
33207;DHT22;19565;46.602;11.534;2023-07-30T08:10:40;21.40;99.90
33207;DHT22;19565;46.602;11.534;2023-07-30T08:13:11;21.50;99.90
33207;DHT22;19565;46.602;11.534;2023-07-30T08:15:40;21.60;99.90
33207;DHT22;19565;46.602;11.534;2023-07-30T08:18:08;21.70;99.90
33207;DHT22;19565;46.602;11.534;2023-07-30T08:20:36;21.80;99.90
33207;DHT22;19565;46.602;11.534;2023-07-30T08:23:04;22.00;99.90
33207;DHT22;19565;46.602;11.534;2023-07-30T08:25:33;22.00;99.90
33207;DHT22;19565;46.602;11.534;2023-07-30T08:28:01;22.00;99.90
33207;DHT22;19565;46.602;11.534;2023-07-30T08:30:30;22.00;99.90
33207;DHT22;19565;46.602;11.534;2023-07-30T08:32:58;21.90;99.90
33207;DHT22;19565;46.602;11.534;2023-07-30T08:35:26;21.90;99.90
33207;DHT22;19565;46.602;11.534;2023-07-30T08:37:55;21.90;99.90
33207;DHT22;19565;46.602;11.534;2023-07-30T08:40:23;21.90;99.90
33207;DHT22;19565;46.602;11.534;2023-07-30T08:42:52;22.00;99.90
33207;DHT22;19565;46.602;11.534;2023-07-30T08:45:20;22.10;99.90
33207;DHT22;19565;46.602;11.534;2023-07-30T08:47:50;22.20;99.90
33207;DHT22;19565;46.602;11.534;2023-07-30T08:50:18;22.20;99.90
33207;DHT22;19565;46.602;11.534;2023-07-30T08:52:47;22.30;99.90
33207;DHT22;19565;46.602;11.534;2023-07-30T08:55:16;22.30;99.90
33207;DHT22;19565;46.602;11.534;2023-07-30T08:57:45;22.40;99.90
33207;DHT22;19565;46.602;11.534;2023-07-30T09:00:16;22.40;99.90
33207;DHT22;19565;46.602;11.534;2023-07-30T09:02:52;22.50;99.90
33207;DHT22;19565;46.602;11.534;2023-07-30T09:05:21;22.50;99.90
33207;DHT22;19565;46.602;11.534;2023-07-30T09:07:49;22.60;99.90
33207;DHT22;19565;46.602;11.534;2023-07-30T09:10:18;22.70;99.90
33207;DHT22;19565;46.602;11.534;2023-07-30T09:12:46;22.80;99.90
33207;DHT22;19565;46.602;11.534;2023-07-30T09:15:20;22.90;99.90
33207;DHT22;19565;46.602;11.534;2023-07-30T09:17:58;22.90;99.90
33207;DHT22;19565;46.602;11.534;2023-07-30T09:20:26;23.00;99.90
33207;DHT22;19565;46.602;11.534;2023-07-30T09:22:56;23.00;99.90
33207;DHT22;19565;46.602;11.534;2023-07-30T09:25:24;23.00;99.90
33207;DHT22;19565;46.602;11.534;2023-07-30T09:27:53;23.10;99.90
33207;DHT22;19565;46.602;11.534;2023-07-30T09:30:25;23.10;99.90
33207;DHT22;19565;46.602;11.534;2023-07-30T09:32:55;23.20;99.90
33207;DHT22;19565;46.602;11.534;2023-07-30T09:35:25;23.10;99.90
33207;DHT22;19565;46.602;11.534;2023-07-30T09:37:58;23.20;99.90
33207;DHT22;19565;46.602;11.534;2023-07-30T09:40:34;23.20;99.90
33207;DHT22;19565;46.602;11.534;2023-07-30T09:43:03;23.20;99.90
33207;DHT22;19565;46.602;11.534;2023-07-30T09:45:34;23.20;99.90
33207;DHT22;19565;46.602;11.534;2023-07-30T09:48:03;23.20;99.90
33207;DHT22;19565;46.602;11.534;2023-07-30T09:50:33;23.20;99.90
33207;DHT22;19565;46.602;11.534;2023-07-30T09:53:02;23.20;99.90
33207;DHT22;19565;46.602;11.534;2023-07-30T09:55:31;23.20;99.90
33207;DHT22;19565;46.602;11.534;2023-07-30T09:57:59;23.30;99.90
33207;DHT22;19565;46.602;11.534;2023-07-30T10:00:27;23.30;99.90
33207;DHT22;19565;46.602;11.534;2023-07-30T10:02:58;23.30;99.90
33207;DHT22;19565;46.602;11.534;2023-07-30T10:05:31;23.30;99.90
33207;DHT22;19565;46.602;11.534;2023-07-30T10:08:05;23.30;99.90
33207;DHT22;19565;46.602;11.534;2023-07-30T10:10:34;23.40;99.90
33207;DHT22;19565;46.602;11.534;2023-07-30T10:13:05;23.30;99.90
33207;DHT22;19565;46.602;11.534;2023-07-30T10:15:34;23.30;99.90
33207;DHT22;19565;46.602;11.534;2023-07-30T10:18:02;23.40;99.90
33207;DHT22;19565;46.602;11.534;2023-07-30T10:20:31;23.40;99.90
33207;DHT22;19565;46.602;11.534;2023-07-30T10:23:01;23.50;99.90
33207;DHT22;19565;46.602;11.534;2023-07-30T10:25:30;23.50;99.90
33207;DHT22;19565;46.602;11.534;2023-07-30T10:27:58;23.50;99.90
33207;DHT22;19565;46.602;11.534;2023-07-30T10:30:31;23.70;99.90
33207;DHT22;19565;46.602;11.534;2023-07-30T10:33:02;23.70;99.90
33207;DHT22;19565;46.602;11.534;2023-07-30T10:35:41;23.70;99.90
33207;DHT22;19565;46.602;11.534;2023-07-30T10:38:15;23.80;99.90
33207;DHT22;19565;46.602;11.534;2023-07-30T10:41:02;23.90;99.90
33207;DHT22;19565;46.602;11.534;2023-07-30T10:43:32;24.00;98.50
33207;DHT22;19565;46.602;11.534;2023-07-30T10:46:01;24.10;97.40
33207;DHT22;19565;46.602;11.534;2023-07-30T10:48:31;24.20;96.90
33207;DHT22;19565;46.602;11.534;2023-07-30T10:51:01;24.30;97.00
33207;DHT22;19565;46.602;11.534;2023-07-30T10:53:31;24.40;95.90
33207;DHT22;19565;46.602;11.534;2023-07-30T10:56:00;24.50;96.30
33207;DHT22;19565;46.602;11.534;2023-07-30T10:58:30;24.60;96.40
33207;DHT22;19565;46.602;11.534;2023-07-30T11:00:59;24.70;96.10
33207;DHT22;19565;46.602;11.534;2023-07-30T11:03:29;24.80;95.90
33207;DHT22;19565;46.602;11.534;2023-07-30T11:05:59;24.80;95.10
33207;DHT22;19565;46.602;11.534;2023-07-30T11:08:35;24.80;95.20
33207;DHT22;19565;46.602;11.534;2023-07-30T11:11:05;24.80;94.90
33207;DHT22;19565;46.602;11.534;2023-07-30T11:13:37;24.80;93.60
33207;DHT22;19565;46.602;11.534;2023-07-30T11:16:05;24.80;93.00
33207;DHT22;19565;46.602;11.534;2023-07-30T11:18:34;24.90;93.10
33207;DHT22;19565;46.602;11.534;2023-07-30T11:21:04;24.80;92.70
33207;DHT22;19565;46.602;11.534;2023-07-30T11:23:34;24.80;92.00
33207;DHT22;19565;46.602;11.534;2023-07-30T11:26:03;24.90;91.50
33207;DHT22;19565;46.602;11.534;2023-07-30T11:28:33;24.90;92.00
33207;DHT22;19565;46.602;11.534;2023-07-30T11:31:06;24.80;92.10
33207;DHT22;19565;46.602;11.534;2023-07-30T11:33:35;24.80;91.80
33207;DHT22;19565;46.602;11.534;2023-07-30T11:36:07;24.80;92.10
33207;DHT22;19565;46.602;11.534;2023-07-30T11:38:37;24.80;92.50
33207;DHT22;19565;46.602;11.534;2023-07-30T11:41:06;24.80;93.20
33207;DHT22;19565;46.602;11.534;2023-07-30T11:43:41;24.80;92.10
33207;DHT22;19565;46.602;11.534;2023-07-30T11:46:11;24.70;92.00
33207;DHT22;19565;46.602;11.534;2023-07-30T11:48:40;24.80;92.10
33207;DHT22;19565;46.602;11.534;2023-07-30T11:51:19;24.80;91.80
33207;DHT22;19565;46.602;11.534;2023-07-30T11:53:52;24.90;91.70
33207;DHT22;19565;46.602;11.534;2023-07-30T11:56:21;25.00;92.40
33207;DHT22;19565;46.602;11.534;2023-07-30T11:58:54;25.00;92.40
33207;DHT22;19565;46.602;11.534;2023-07-30T12:01:24;25.10;92.00
33207;DHT22;19565;46.602;11.534;2023-07-30T12:03:54;25.10;91.00
33207;DHT22;19565;46.602;11.534;2023-07-30T12:06:23;25.10;91.50
33207;DHT22;19565;46.602;11.534;2023-07-30T12:08:52;25.20;92.00
33207;DHT22;19565;46.602;11.534;2023-07-30T12:11:20;25.20;91.30
33207;DHT22;19565;46.602;11.534;2023-07-30T12:13:49;25.30;91.50
33207;DHT22;19565;46.602;11.534;2023-07-30T12:16:18;25.30;91.20
33207;DHT22;19565;46.602;11.534;2023-07-30T12:18:48;25.40;91.70
33207;DHT22;19565;46.602;11.534;2023-07-30T12:21:16;25.40;90.90
33207;DHT22;19565;46.602;11.534;2023-07-30T12:23:44;25.40;90.50
33207;DHT22;19565;46.602;11.534;2023-07-30T12:26:14;25.40;90.10
33207;DHT22;19565;46.602;11.534;2023-07-30T12:28:42;25.40;89.40
33207;DHT22;19565;46.602;11.534;2023-07-30T12:31:10;25.40;90.00
33207;DHT22;19565;46.602;11.534;2023-07-30T12:33:38;25.40;90.30
33207;DHT22;19565;46.602;11.534;2023-07-30T12:36:06;25.50;88.30
33207;DHT22;19565;46.602;11.534;2023-07-30T12:38:34;25.50;88.30
33207;DHT22;19565;46.602;11.534;2023-07-30T12:41:02;25.50;87.20
33207;DHT22;19565;46.602;11.534;2023-07-30T12:43:32;25.60;88.10
33207;DHT22;19565;46.602;11.534;2023-07-30T12:46:00;25.60;88.60
33207;DHT22;19565;46.602;11.534;2023-07-30T12:48:28;25.60;86.20
33207;DHT22;19565;46.602;11.534;2023-07-30T12:50:57;25.70;87.60
33207;DHT22;19565;46.602;11.534;2023-07-30T12:53:25;25.70;87.00
33207;DHT22;19565;46.602;11.534;2023-07-30T12:55:53;25.70;87.10
33207;DHT22;19565;46.602;11.534;2023-07-30T12:58:21;25.70;87.60
33207;DHT22;19565;46.602;11.534;2023-07-30T13:00:51;25.70;87.10
33207;DHT22;19565;46.602;11.534;2023-07-30T13:03:19;25.80;86.00
33207;DHT22;19565;46.602;11.534;2023-07-30T13:05:47;25.80;85.60
33207;DHT22;19565;46.602;11.534;2023-07-30T13:08:15;25.80;86.20
33207;DHT22;19565;46.602;11.534;2023-07-30T13:10:43;25.90;85.80
33207;DHT22;19565;46.602;11.534;2023-07-30T13:13:11;26.00;86.00
33207;DHT22;19565;46.602;11.534;2023-07-30T13:15:39;26.10;82.30
33207;DHT22;19565;46.602;11.534;2023-07-30T13:18:08;26.20;85.00
33207;DHT22;19565;46.602;11.534;2023-07-30T13:20:36;26.30;83.10
33207;DHT22;19565;46.602;11.534;2023-07-30T13:23:04;26.40;81.10
33207;DHT22;19565;46.602;11.534;2023-07-30T13:25:33;26.50;82.30
33207;DHT22;19565;46.602;11.534;2023-07-30T13:28:01;26.50;83.30
33207;DHT22;19565;46.602;11.534;2023-07-30T13:30:29;26.60;82.90
33207;DHT22;19565;46.602;11.534;2023-07-30T13:32:57;26.60;81.40
33207;DHT22;19565;46.602;11.534;2023-07-30T13:35:26;26.50;81.90
33207;DHT22;19565;46.602;11.534;2023-07-30T13:37:54;26.60;80.80
33207;DHT22;19565;46.602;11.534;2023-07-30T13:40:22;26.60;82.10
33207;DHT22;19565;46.602;11.534;2023-07-30T13:42:50;26.60;81.40
33207;DHT22;19565;46.602;11.534;2023-07-30T13:45:18;26.60;82.50
33207;DHT22;19565;46.602;11.534;2023-07-30T13:47:46;26.50;81.70
33207;DHT22;19565;46.602;11.534;2023-07-30T13:50:15;26.50;83.30
33207;DHT22;19565;46.602;11.534;2023-07-30T13:52:44;26.50;86.00
33207;DHT22;19565;46.602;11.534;2023-07-30T13:55:13;26.40;85.50
33207;DHT22;19565;46.602;11.534;2023-07-30T13:57:43;26.20;87.40
33207;DHT22;19565;46.602;11.534;2023-07-30T14:00:12;26.20;88.00
33207;DHT22;19565;46.602;11.534;2023-07-30T14:02:40;26.20;90.00
33207;DHT22;19565;46.602;11.534;2023-07-30T14:05:09;26.30;91.30
33207;DHT22;19565;46.602;11.534;2023-07-30T14:07:37;26.40;91.80
33207;DHT22;19565;46.602;11.534;2023-07-30T14:10:09;26.50;91.70
33207;DHT22;19565;46.602;11.534;2023-07-30T14:12:37;26.50;91.20
33207;DHT22;19565;46.602;11.534;2023-07-30T14:15:06;26.50;90.50
33207;DHT22;19565;46.602;11.534;2023-07-30T14:17:34;26.60;90.90
33207;DHT22;19565;46.602;11.534;2023-07-30T14:20:03;26.60;90.50
33207;DHT22;19565;46.602;11.534;2023-07-30T14:22:31;26.60;90.80
33207;DHT22;19565;46.602;11.534;2023-07-30T14:24:59;26.50;92.40
33207;DHT22;19565;46.602;11.534;2023-07-30T14:27:28;26.40;92.60
33207;DHT22;19565;46.602;11.534;2023-07-30T14:29:56;26.20;92.50
33207;DHT22;19565;46.602;11.534;2023-07-30T14:32:24;26.20;92.60
33207;DHT22;19565;46.602;11.534;2023-07-30T14:34:52;26.30;92.80
33207;DHT22;19565;46.602;11.534;2023-07-30T14:37:20;26.30;93.00
33207;DHT22;19565;46.602;11.534;2023-07-30T14:39:49;26.30;93.60
33207;DHT22;19565;46.602;11.534;2023-07-30T14:42:16;26.40;93.40
33207;DHT22;19565;46.602;11.534;2023-07-30T14:44:46;26.40;93.30
33207;DHT22;19565;46.602;11.534;2023-07-30T14:47:14;26.30;93.00
33207;DHT22;19565;46.602;11.534;2023-07-30T14:49:42;26.20;93.50
33207;DHT22;19565;46.602;11.534;2023-07-30T14:52:10;26.00;94.10
33207;DHT22;19565;46.602;11.534;2023-07-30T14:54:38;25.90;94.30
33207;DHT22;19565;46.602;11.534;2023-07-30T14:57:06;25.70;94.50
33207;DHT22;19565;46.602;11.534;2023-07-30T14:59:34;25.60;95.60
33207;DHT22;19565;46.602;11.534;2023-07-30T15:02:04;25.50;96.20
33207;DHT22;19565;46.602;11.534;2023-07-30T15:04:32;25.50;96.50
33207;DHT22;19565;46.602;11.534;2023-07-30T15:07:00;25.40;97.40
33207;DHT22;19565;46.602;11.534;2023-07-30T15:09:29;25.30;97.50
33207;DHT22;19565;46.602;11.534;2023-07-30T15:12:02;25.20;97.80
33207;DHT22;19565;46.602;11.534;2023-07-30T15:14:31;25.10;98.70
33207;DHT22;19565;46.602;11.534;2023-07-30T15:16:59;25.00;98.90
33207;DHT22;19565;46.602;11.534;2023-07-30T15:19:28;24.80;99.90
33207;DHT22;19565;46.602;11.534;2023-07-30T15:21:56;24.40;98.80
33207;DHT22;19565;46.602;11.534;2023-07-30T15:24:26;23.80;98.40